Time,TemperatureF,DewpointF,PressureIn,WindDirection,WindDirectionDegrees,WindSpeedMPH,WindSpeedGustMPH,Humidity,HourlyPrecipIn,Conditions,Clouds,dailyrainin,SoftwareType,DateUTC
2013-04-30 00:01:00,56.9,53.7,29.79,SSE,157,0.0,0.0,89,0.00,,---,0.00,VWS V14.01,2013-04-30 05:01:00,
2013-04-30 00:06:00,56.9,53.7,29.79,SSE,157,0.0,0.0,89,0.00,,---,0.00,VWS V14.01,2013-04-30 05:06:00,
2013-04-30 00:11:00,56.7,53.5,29.79,SSE,157,0.0,0.0,89,0.00,,---,0.00,VWS V14.01,2013-04-30 05:11:00,
2013-04-30 00:16:00,56.5,53.3,29.80,SSE,157,0.0,0.0,89,0.00,,---,0.00,VWS V14.01,2013-04-30 05:16:00,
2013-04-30 00:21:00,56.5,53.3,29.80,SSE,157,0.0,0.0,89,0.00,,---,0.00,VWS V14.01,2013-04-30 05:21:00,
2013-04-30 00:26:00,56.6,53.4,29.80,SSE,157,0.0,0.0,89,0.00,,---,0.00,VWS V14.01,2013-04-30 05:26:00,
2013-04-30 00:31:00,57.0,53.5,29.80,SSE,157,0.0,0.0,88,0.00,,---,0.00,VWS V14.01,2013-04-30 05:31:00,
2013-04-30 00:36:00,57.0,53.5,29.80,SSE,157,0.0,0.0,88,0.00,,---,0.00,VWS V14.01,2013-04-30 05:36:00,
2013-04-30 00:41:00,57.5,53.7,29.80,SSE,157,0.0,0.0,87,0.00,,---,0.00,VWS V14.01,2013-04-30 05:41:00,
2013-04-30 00:46:00,57.5,53.3,29.80,SSE,157,0.0,0.0,86,0.00,,---,0.00,VWS V14.01,2013-04-30 05:46:00,
2013-04-30 00:51:00,57.5,53.3,29.80,SSE,157,0.0,0.0,86,0.00,,---,0.00,VWS V14.01,2013-04-30 05:51:00,
2013-04-30 00:56:00,57.3,53.5,29.80,SSE,157,0.0,0.0,87,0.00,,---,0.00,VWS V14.01,2013-04-30 05:56:00,
2013-04-30 01:01:00,57.2,53.4,29.80,SSE,157,0.0,0.0,87,0.00,,---,0.00,VWS V14.01,2013-04-30 06:01:00,
2013-04-30 01:06:00,57.0,53.2,29.80,SSE,157,0.0,0.0,87,0.00,,---,0.00,VWS V14.01,2013-04-30 06:06:00,
2013-04-30 01:11:00,56.9,53.1,29.80,SSE,157,0.0,0.0,87,0.00,,---,0.00,VWS V14.01,2013-04-30 06:11:00,
2013-04-30 01:16:00,56.6,52.8,29.80,SSE,157,0.0,0.0,87,0.00,,---,0.00,VWS V14.01,2013-04-30 06:16:00,
2013-04-30 01:21:00,56.6,52.8,29.80,SSE,157,0.0,0.0,87,0.00,,---,0.00,VWS V14.01,2013-04-30 06:21:00,
2013-04-30 01:26:00,56.5,53.0,29.80,SSE,157,0.0,0.0,88,0.00,,---,0.00,VWS V14.01,2013-04-30 06:26:00,
2013-04-30 01:31:00,56.3,52.8,29.80,SSE,157,0.0,0.0,88,0.00,,---,0.00,VWS V14.01,2013-04-30 06:31:00,
2013-04-30 01:36:00,56.2,53.0,29.80,SSE,157,0.0,0.0,89,0.00,,---,0.00,VWS V14.01,2013-04-30 06:36:00,
2013-04-30 01:41:00,56.0,52.8,29.79,SSE,157,0.0,0.0,89,0.00,,---,0.00,VWS V14.01,2013-04-30 06:41:00,
2013-04-30 01:46:00,55.9,52.7,29.79,SSE,157,0.0,0.0,89,0.00,,---,0.00,VWS V14.01,2013-04-30 06:46:00,
2013-04-30 01:51:00,55.7,52.5,29.79,SSE,157,0.0,0.0,89,0.00,,---,0.00,VWS V14.01,2013-04-30 06:51:00,
2013-04-30 01:56:00,55.6,52.4,29.79,SSE,157,0.0,0.0,89,0.00,,---,0.00,VWS V14.01,2013-04-30 06:56:00,
2013-04-30 02:01:00,55.4,52.2,29.79,SSE,157,0.0,0.0,89,0.00,,---,0.00,VWS V14.01,2013-04-30 07:01:00,
2013-04-30 02:06:00,55.3,52.1,29.79,SSE,157,0.0,0.0,89,0.00,,---,0.00,VWS V14.01,2013-04-30 07:06:00,
2013-04-30 02:11:00,55.1,51.9,29.79,SSE,157,0.0,0.0,89,0.00,,---,0.00,VWS V14.01,2013-04-30 07:11:00,
2013-04-30 02:16:00,55.1,52.2,29.79,SSE,157,0.0,0.0,90,0.00,,---,0.00,VWS V14.01,2013-04-30 07:16:00,
2013-04-30 02:21:00,55.3,52.7,29.79,SSE,157,0.0,0.0,91,0.00,,---,0.00,VWS V14.01,2013-04-30 07:21:00,
2013-04-30 02:26:00,55.4,52.8,29.79,SSE,157,0.0,0.0,91,0.00,,---,0.00,VWS V14.01,2013-04-30 07:26:00,
2013-04-30 02:31:00,55.4,52.8,29.79,SSE,157,0.0,0.0,91,0.00,,---,0.00,VWS V14.01,2013-04-30 07:31:00,
2013-04-30 02:36:00,55.3,52.7,29.79,SSE,157,0.0,0.0,91,0.00,,---,0.00,VWS V14.01,2013-04-30 07:36:00,
2013-04-30 02:41:00,55.3,53.0,29.79,SSE,157,0.0,0.0,92,0.00,,---,0.00,VWS V14.01,2013-04-30 07:41:00,
2013-04-30 02:46:00,55.3,53.0,29.79,SSE,157,0.0,0.0,92,0.00,,---,0.00,VWS V14.01,2013-04-30 07:46:00,
2013-04-30 02:51:00,55.3,53.0,29.79,SSE,157,0.0,0.0,92,0.00,,---,0.00,VWS V14.01,2013-04-30 07:51:00,
2013-04-30 02:56:00,55.1,52.8,29.79,SSE,157,0.0,0.0,92,0.00,,---,0.00,VWS V14.01,2013-04-30 07:56:00,
2013-04-30 03:01:00,54.8,52.5,29.79,SSE,157,0.0,0.0,92,0.00,,---,0.00,VWS V14.01,2013-04-30 08:01:00,
2013-04-30 03:06:00,54.5,52.2,29.79,SSE,157,0.0,0.0,92,0.00,,---,0.00,VWS V14.01,2013-04-30 08:06:00,
2013-04-30 03:11:00,54.4,52.1,29.79,SSE,157,0.0,0.0,92,0.00,,---,0.00,VWS V14.01,2013-04-30 08:11:00,
2013-04-30 03:16:00,54.1,51.8,29.79,SSE,157,0.0,0.0,92,0.00,,---,0.00,VWS V14.01,2013-04-30 08:16:00,
2013-04-30 03:21:00,53.8,51.2,29.79,SSE,157,0.0,0.0,91,0.00,,---,0.00,VWS V14.01,2013-04-30 08:21:00,
2013-04-30 03:26:00,53.5,51.2,29.80,SSE,157,0.0,0.0,92,0.00,,---,0.00,VWS V14.01,2013-04-30 08:26:00,
2013-04-30 03:31:00,53.3,51.0,29.80,SSE,157,0.0,0.0,92,0.00,,---,0.00,VWS V14.01,2013-04-30 08:31:00,
2013-04-30 03:36:00,53.1,50.8,29.79,SSE,157,0.0,0.0,92,0.00,,---,0.00,VWS V14.01,2013-04-30 08:36:00,
2013-04-30 03:41:00,52.8,50.2,29.79,SSE,157,0.0,0.0,91,0.00,,---,0.00,VWS V14.01,2013-04-30 08:41:00,
2013-04-30 03:46:00,52.6,50.3,29.79,SSE,157,0.0,0.0,92,0.00,,---,0.00,VWS V14.01,2013-04-30 08:46:00,
2013-04-30 03:51:00,52.5,50.2,29.79,SSE,157,0.0,0.0,92,0.00,,---,0.00,VWS V14.01,2013-04-30 08:51:00,
2013-04-30 03:56:00,52.2,50.0,29.79,SSE,157,0.0,0.0,92,0.00,,---,0.00,VWS V14.01,2013-04-30 08:56:00,
2013-04-30 04:01:00,52.2,50.0,29.79,SSE,157,0.0,0.0,92,0.00,,---,0.00,VWS V14.01,2013-04-30 09:01:00,
2013-04-30 04:06:00,52.2,50.0,29.79,SSE,157,0.0,0.0,92,0.00,,---,0.00,VWS V14.01,2013-04-30 09:06:00,
2013-04-30 04:11:00,52.0,49.8,29.79,SSE,157,0.0,0.0,92,0.00,,---,0.00,VWS V14.01,2013-04-30 09:11:00,
2013-04-30 04:16:00,51.7,49.5,29.79,SSE,157,0.0,0.0,92,0.00,,---,0.00,VWS V14.01,2013-04-30 09:16:00,
2013-04-30 04:21:00,51.4,49.2,29.79,SSE,157,0.0,0.0,92,0.00,,---,0.00,VWS V14.01,2013-04-30 09:21:00,
2013-04-30 04:26:00,51.3,49.1,29.79,SSE,157,0.0,0.0,92,0.00,,---,0.00,VWS V14.01,2013-04-30 09:26:00,
2013-04-30 04:31:00,51.1,48.9,29.79,SSE,157,0.0,0.0,92,0.00,,---,0.00,VWS V14.01,2013-04-30 09:31:00,
2013-04-30 04:36:00,50.8,48.6,29.79,SSE,157,0.0,0.0,92,0.00,,---,0.00,VWS V14.01,2013-04-30 09:36:00,
2013-04-30 04:41:00,50.7,48.5,29.79,SSE,157,0.0,0.0,92,0.00,,---,0.00,VWS V14.01,2013-04-30 09:41:00,
2013-04-30 04:46:00,50.4,48.2,29.79,SSE,157,0.0,0.0,92,0.00,,---,0.00,VWS V14.01,2013-04-30 09:46:00,
2013-04-30 04:51:00,50.4,48.5,29.79,SSE,157,0.0,0.0,93,0.00,,---,0.00,VWS V14.01,2013-04-30 09:51:00,
2013-04-30 04:56:00,50.2,48.3,29.79,SSE,157,0.0,0.0,93,0.00,,---,0.00,VWS V14.01,2013-04-30 09:56:00,
2013-04-30 05:01:00,50.2,48.3,29.79,SSE,157,0.0,0.0,93,0.00,,---,0.00,VWS V14.01,2013-04-30 10:01:00,
2013-04-30 05:06:00,50.1,48.2,29.79,SSE,157,0.0,0.0,93,0.00,,---,0.00,VWS V14.01,2013-04-30 10:06:00,
2013-04-30 05:11:00,49.9,48.0,29.79,SSE,157,0.0,0.0,93,0.00,,---,0.00,VWS V14.01,2013-04-30 10:11:00,
2013-04-30 05:16:00,49.8,47.9,29.79,SSE,157,0.0,0.0,93,0.00,,---,0.00,VWS V14.01,2013-04-30 10:16:00,
2013-04-30 05:21:00,49.8,47.9,29.79,SSE,157,0.0,0.0,93,0.00,,---,0.00,VWS V14.01,2013-04-30 10:21:00,
2013-04-30 05:26:00,49.5,47.6,29.79,SSE,157,0.0,0.0,93,0.00,,---,0.00,VWS V14.01,2013-04-30 10:26:00,
2013-04-30 05:31:00,49.4,47.5,29.79,SSE,157,0.0,0.0,93,0.00,,---,0.00,VWS V14.01,2013-04-30 10:31:00,
2013-04-30 05:36:00,49.4,47.5,29.80,SSE,157,0.0,0.0,93,0.00,,---,0.00,VWS V14.01,2013-04-30 10:36:00,
2013-04-30 05:41:00,49.2,47.3,29.80,SSE,157,0.0,0.0,93,0.00,,---,0.00,VWS V14.01,2013-04-30 10:41:00,
2013-04-30 05:46:00,49.1,47.2,29.80,SSE,157,0.0,0.0,93,0.00,,---,0.00,VWS V14.01,2013-04-30 10:46:00,
2013-04-30 05:51:00,49.1,47.2,29.80,SSE,157,0.0,0.0,93,0.00,,---,0.00,VWS V14.01,2013-04-30 10:51:00,
2013-04-30 05:56:00,49.1,47.2,29.80,SSE,157,0.0,0.0,93,0.00,,---,0.00,VWS V14.01,2013-04-30 10:56:00,
2013-04-30 06:01:00,48.9,47.2,29.80,SSE,157,0.0,0.0,94,0.00,,---,0.00,VWS V14.01,2013-04-30 11:01:00,
2013-04-30 06:06:00,49.1,47.5,29.80,SSE,157,0.0,0.0,94,0.00,,---,0.00,VWS V14.01,2013-04-30 11:06:00,
2013-04-30 06:11:00,49.4,47.8,29.80,SSE,157,0.0,0.0,94,0.00,,---,0.00,VWS V14.01,2013-04-30 11:11:00,
2013-04-30 06:16:00,49.6,48.2,29.80,SSE,157,0.0,0.0,95,0.00,,---,0.00,VWS V14.01,2013-04-30 11:16:00,
2013-04-30 06:21:00,49.8,48.4,29.80,SSE,157,0.0,0.0,95,0.00,,---,0.00,VWS V14.01,2013-04-30 11:21:00,
2013-04-30 06:26:00,49.8,48.4,29.81,SSE,157,0.0,0.0,95,0.00,,---,0.00,VWS V14.01,2013-04-30 11:26:00,
2013-04-30 06:31:00,50.1,48.7,29.81,SSE,157,0.0,0.0,95,0.00,,---,0.00,VWS V14.01,2013-04-30 11:31:00,
2013-04-30 06:36:00,50.2,48.8,29.81,SSE,157,0.0,0.0,95,0.00,,---,0.00,VWS V14.01,2013-04-30 11:36:00,
2013-04-30 06:41:00,50.2,48.8,29.82,SSE,157,0.0,0.0,95,0.00,,---,0.00,VWS V14.01,2013-04-30 11:41:00,
2013-04-30 06:46:00,50.4,49.0,29.82,SSE,157,0.0,0.0,95,0.00,,---,0.00,VWS V14.01,2013-04-30 11:46:00,
2013-04-30 06:51:00,50.4,49.0,29.82,SSE,157,0.0,0.0,95,0.00,,---,0.00,VWS V14.01,2013-04-30 11:51:00,
2013-04-30 06:56:00,50.5,49.1,29.82,SSE,157,0.0,0.0,95,0.00,,---,0.00,VWS V14.01,2013-04-30 11:56:00,
2013-04-30 07:01:00,50.8,49.7,29.83,SSE,157,0.0,0.0,96,0.00,,---,0.00,VWS V14.01,2013-04-30 12:01:00,
2013-04-30 07:06:00,51.1,50.0,29.83,SSE,157,0.0,0.0,96,0.00,,---,0.00,VWS V14.01,2013-04-30 12:06:00,
2013-04-30 07:11:00,51.3,50.2,29.83,SSE,157,0.0,0.0,96,0.00,,---,0.00,VWS V14.01,2013-04-30 12:11:00,
2013-04-30 07:16:00,52.0,50.9,29.82,SSE,157,0.0,0.0,96,0.00,,---,0.00,VWS V14.01,2013-04-30 12:16:00,
2013-04-30 07:21:00,52.9,52.1,29.82,SSE,157,0.0,0.0,97,0.00,,---,0.00,VWS V14.01,2013-04-30 12:21:00,
2013-04-30 07:26:00,54.2,53.4,29.82,SSE,157,0.0,0.0,97,0.00,,---,0.00,VWS V14.01,2013-04-30 12:26:00,
2013-04-30 07:31:00,54.7,53.9,29.83,SSE,157,0.0,0.0,97,0.00,,---,0.00,VWS V14.01,2013-04-30 12:31:00,
2013-04-30 07:36:00,55.3,54.5,29.83,SSE,157,0.0,0.0,97,0.00,,---,0.00,VWS V14.01,2013-04-30 12:36:00,
2013-04-30 07:41:00,55.9,55.1,29.82,SSE,157,0.0,0.0,97,0.00,,---,0.00,VWS V14.01,2013-04-30 12:41:00,
2013-04-30 07:46:00,56.5,55.7,29.82,SSE,157,0.0,0.0,97,0.00,,---,0.00,VWS V14.01,2013-04-30 12:46:00,
2013-04-30 07:51:00,56.9,55.8,29.83,SSE,157,0.0,0.0,96,0.00,,---,0.00,VWS V14.01,2013-04-30 12:51:00,
2013-04-30 07:56:00,57.6,56.5,29.82,SSE,157,0.0,0.0,96,0.00,,---,0.00,VWS V14.01,2013-04-30 12:56:00,
2013-04-30 08:01:00,58.4,57.3,29.83,SSE,157,0.0,0.0,96,0.00,,---,0.00,VWS V14.01,2013-04-30 13:01:00,
2013-04-30 08:06:00,59.8,58.7,29.83,SSE,157,0.0,0.0,96,0.00,,---,0.00,VWS V14.01,2013-04-30 13:06:00,
2013-04-30 08:11:00,60.7,59.3,29.83,SSE,157,2.0,2.0,95,0.00,,---,0.00,VWS V14.01,2013-04-30 13:11:00,
2013-04-30 08:16:00,61.6,59.0,29.83,SSE,157,1.0,2.0,91,0.00,,---,0.00,VWS V14.01,2013-04-30 13:16:00,
2013-04-30 08:21:00,62.4,59.1,29.83,SSE,157,1.0,2.0,89,0.00,,---,0.00,VWS V14.01,2013-04-30 13:21:00,
2013-04-30 08:26:00,63.1,58.8,29.83,SE,139,2.0,3.0,86,0.00,,---,0.00,VWS V14.01,2013-04-30 13:26:00,
2013-04-30 08:31:00,63.5,58.6,29.83,SE,139,1.0,3.0,84,0.00,,---,0.00,VWS V14.01,2013-04-30 13:31:00,
2013-04-30 08:36:00,64.2,59.3,29.82,SE,136,1.0,3.0,84,0.00,,---,0.00,VWS V14.01,2013-04-30 13:36:00,
2013-04-30 08:41:00,65.0,59.7,29.82,SE,138,2.0,3.0,83,0.00,,---,0.00,VWS V14.01,2013-04-30 13:41:00,
2013-04-30 08:46:00,65.6,59.3,29.83,ESE,112,6.0,6.0,80,0.00,,---,0.00,VWS V14.01,2013-04-30 13:46:00,
2013-04-30 08:51:00,65.6,58.9,29.83,ESE,108,2.0,3.0,79,0.00,,---,0.00,VWS V14.01,2013-04-30 13:51:00,
2013-04-30 08:56:00,66.3,59.6,29.83,ESE,108,1.0,3.0,79,0.00,,---,0.00,VWS V14.01,2013-04-30 13:56:00,
2013-04-30 09:01:00,66.9,59.8,29.83,ESE,108,3.0,3.0,78,0.00,,---,0.00,VWS V14.01,2013-04-30 14:01:00,
2013-04-30 09:06:00,67.6,59.8,29.83,ESE,108,2.0,3.0,76,0.00,,---,0.00,VWS V14.01,2013-04-30 14:06:00,
2013-04-30 09:11:00,68.1,60.6,29.83,ESE,108,1.0,2.0,77,0.00,,---,0.00,VWS V14.01,2013-04-30 14:11:00,
2013-04-30 09:16:00,68.9,61.0,29.83,ESE,108,0.0,3.0,76,0.00,,---,0.00,VWS V14.01,2013-04-30 14:16:00,
2013-04-30 09:21:00,69.3,61.0,29.83,ESE,108,2.0,2.0,75,0.00,,---,0.00,VWS V14.01,2013-04-30 14:21:00,
2013-04-30 09:26:00,69.8,61.2,29.83,ESE,108,3.0,5.0,74,0.00,,---,0.00,VWS V14.01,2013-04-30 14:26:00,
2013-04-30 09:31:00,70.3,62.4,29.83,ESE,102,2.0,3.0,76,0.00,,---,0.00,VWS V14.01,2013-04-30 14:31:00,
2013-04-30 09:36:00,70.6,61.5,29.83,ENE,61,3.0,5.0,73,0.00,,---,0.00,VWS V14.01,2013-04-30 14:36:00,
2013-04-30 09:41:00,70.9,61.8,29.83,ENE,61,0.0,1.0,73,0.00,,---,0.00,VWS V14.01,2013-04-30 14:41:00,
2013-04-30 09:46:00,71.6,61.7,29.83,ENE,68,1.0,3.0,71,0.00,,---,0.00,VWS V14.01,2013-04-30 14:46:00,
2013-04-30 09:51:00,72.1,62.2,29.83,ENE,68,1.0,2.0,71,0.00,,---,0.00,VWS V14.01,2013-04-30 14:51:00,
2013-04-30 09:56:00,72.8,62.0,29.83,ENE,66,2.0,3.0,69,0.00,,---,0.00,VWS V14.01,2013-04-30 14:56:00,
2013-04-30 10:01:00,73.3,62.5,29.83,ENE,66,2.0,2.0,69,0.00,,---,0.00,VWS V14.01,2013-04-30 15:01:00,
2013-04-30 10:06:00,74.0,62.8,29.82,NE,42,5.0,5.0,68,0.00,,---,0.00,VWS V14.01,2013-04-30 15:06:00,
2013-04-30 10:11:00,74.9,64.1,29.82,NE,47,2.0,3.0,69,0.00,,---,0.00,VWS V14.01,2013-04-30 15:11:00,
2013-04-30 10:16:00,75.3,62.7,29.82,NE,47,1.0,3.0,65,0.00,,---,0.00,VWS V14.01,2013-04-30 15:16:00,
2013-04-30 10:21:00,75.4,62.8,29.82,South,174,2.0,2.0,65,0.00,,---,0.00,VWS V14.01,2013-04-30 15:21:00,
2013-04-30 10:26:00,75.4,62.8,29.82,ENE,60,3.0,6.0,65,0.00,,---,0.00,VWS V14.01,2013-04-30 15:26:00,
2013-04-30 10:31:00,75.4,62.8,29.82,SSE,163,1.0,5.0,65,0.00,,---,0.00,VWS V14.01,2013-04-30 15:31:00,
2013-04-30 10:36:00,75.8,60.5,29.82,SE,136,5.0,5.0,59,0.00,,---,0.00,VWS V14.01,2013-04-30 15:36:00,
2013-04-30 10:41:00,76.3,62.3,29.82,ESE,122,1.0,1.0,62,0.00,,---,0.00,VWS V14.01,2013-04-30 15:41:00,
2013-04-30 10:46:00,76.8,62.8,29.82,NE,49,3.0,5.0,62,0.00,,---,0.00,VWS V14.01,2013-04-30 15:46:00,
2013-04-30 10:51:00,77.0,61.1,29.82,NE,50,1.0,6.0,58,0.00,,---,0.00,VWS V14.01,2013-04-30 15:51:00,
2013-04-30 10:56:00,77.0,62.1,29.82,SSW,208,2.0,7.0,60,0.00,,---,0.00,VWS V14.01,2013-04-30 15:56:00,
2013-04-30 11:01:00,77.2,62.7,29.82,South,186,1.0,3.0,61,0.00,,---,0.00,VWS V14.01,2013-04-30 16:01:00,
2013-04-30 11:06:00,77.6,62.6,29.82,South,173,2.0,6.0,60,0.00,,---,0.00,VWS V14.01,2013-04-30 16:06:00,
2013-04-30 11:11:00,77.7,62.2,29.82,ENE,74,2.0,5.0,59,0.00,,---,0.00,VWS V14.01,2013-04-30 16:11:00,
2013-04-30 11:16:00,78.1,62.6,29.82,ESE,122,2.0,6.0,59,0.00,,---,0.00,VWS V14.01,2013-04-30 16:16:00,
2013-04-30 11:21:00,78.6,64.0,29.82,SE,135,2.0,2.0,61,0.00,,---,0.00,VWS V14.01,2013-04-30 16:21:00,
2013-04-30 11:26:00,78.8,62.3,29.82,SE,135,3.0,5.0,57,0.00,,---,0.00,VWS V14.01,2013-04-30 16:26:00,
2013-04-30 11:31:00,79.0,63.0,29.81,SSE,167,3.0,7.0,58,0.00,,---,0.00,VWS V14.01,2013-04-30 16:31:00,
2013-04-30 11:36:00,79.2,62.7,29.81,ESE,116,1.0,7.0,57,0.00,,---,0.00,VWS V14.01,2013-04-30 16:36:00,
2013-04-30 11:41:00,79.2,62.7,29.81,South,186,5.0,6.0,57,0.00,,---,0.00,VWS V14.01,2013-04-30 16:41:00,
2013-04-30 11:46:00,78.6,62.6,29.82,SSE,163,3.0,11.0,58,0.00,,---,0.00,VWS V14.01,2013-04-30 16:46:00,
2013-04-30 11:51:00,78.6,62.6,29.81,South,186,5.0,5.0,58,0.00,,---,0.00,VWS V14.01,2013-04-30 16:51:00,
2013-04-30 11:56:00,78.8,63.8,29.81,South,176,2.0,8.0,60,0.00,,---,0.00,VWS V14.01,2013-04-30 16:56:00,
2013-04-30 12:01:00,79.0,62.5,29.82,NE,56,7.0,7.0,57,0.00,,---,0.00,VWS V14.01,2013-04-30 17:01:00,
2013-04-30 12:06:00,79.2,64.6,29.81,South,170,6.0,7.0,61,0.00,,---,0.00,VWS V14.01,2013-04-30 17:06:00,
2013-04-30 12:11:00,78.8,64.2,29.81,ENE,66,6.0,6.0,61,0.00,,---,0.00,VWS V14.01,2013-04-30 17:11:00,
2013-04-30 12:16:00,78.1,62.6,29.81,SSE,163,2.0,6.0,59,0.00,,---,0.00,VWS V14.01,2013-04-30 17:16:00,
2013-04-30 12:21:00,79.2,61.7,29.81,SE,140,2.0,5.0,55,0.00,,---,0.00,VWS V14.01,2013-04-30 17:21:00,
2013-04-30 12:26:00,80.1,61.4,29.81,SE,139,2.0,6.0,53,0.00,,---,0.00,VWS V14.01,2013-04-30 17:26:00,
2013-04-30 12:31:00,80.3,62.2,29.81,ENE,67,2.0,5.0,54,0.00,,---,0.00,VWS V14.01,2013-04-30 17:31:00,
2013-04-30 12:36:00,80.3,60.5,29.81,SE,135,1.0,12.0,51,0.00,,---,0.00,VWS V14.01,2013-04-30 17:36:00,
2013-04-30 12:41:00,80.7,60.9,29.80,South,187,1.0,1.0,51,0.00,,---,0.00,VWS V14.01,2013-04-30 17:41:00,
2013-04-30 12:46:00,80.9,60.5,29.81,SSE,147,6.0,11.0,50,0.00,,---,0.00,VWS V14.01,2013-04-30 17:46:00,
2013-04-30 12:51:00,81.1,60.2,29.80,ENE,63,2.0,5.0,49,0.00,,---,0.00,VWS V14.01,2013-04-30 17:51:00,
2013-04-30 12:56:00,80.9,60.5,29.80,SSW,205,1.0,7.0,50,0.00,,---,0.00,VWS V14.01,2013-04-30 17:56:00,
2013-04-30 13:01:00,80.9,60.5,29.80,ESE,121,5.0,10.0,50,0.00,,---,0.00,VWS V14.01,2013-04-30 18:01:00,
2013-04-30 13:06:00,81.4,61.0,29.80,East,94,2.0,10.0,50,0.00,,---,0.00,VWS V14.01,2013-04-30 18:06:00,
2013-04-30 13:11:00,81.6,61.7,29.79,South,188,5.0,5.0,51,0.00,,---,0.00,VWS V14.01,2013-04-30 18:11:00,
2013-04-30 13:16:00,81.6,61.7,29.79,SE,139,5.0,10.0,51,0.00,,---,0.00,VWS V14.01,2013-04-30 18:16:00,
2013-04-30 13:21:00,81.6,61.7,29.79,South,180,2.0,5.0,51,0.00,,---,0.00,VWS V14.01,2013-04-30 18:21:00,
2013-04-30 13:26:00,81.8,61.9,29.79,WSW,239,2.0,8.0,51,0.00,,---,0.00,VWS V14.01,2013-04-30 18:26:00,
2013-04-30 13:31:00,81.6,60.6,29.79,South,184,3.0,5.0,49,0.00,,---,0.00,VWS V14.01,2013-04-30 18:31:00,
2013-04-30 13:36:00,81.4,62.1,29.78,ENE,73,3.0,10.0,52,0.00,,---,0.00,VWS V14.01,2013-04-30 18:36:00,
2013-04-30 13:41:00,81.2,59.1,29.78,ESE,121,2.0,5.0,47,0.00,,---,0.00,VWS V14.01,2013-04-30 18:41:00,
2013-04-30 13:46:00,81.4,59.3,29.78,SE,146,2.0,14.0,47,0.00,,---,0.00,VWS V14.01,2013-04-30 18:46:00,
2013-04-30 13:51:00,81.8,61.4,29.78,NE,51,1.0,6.0,50,0.00,,---,0.00,VWS V14.01,2013-04-30 18:51:00,
2013-04-30 13:56:00,81.2,60.2,29.78,NE,54,7.0,7.0,49,0.00,,---,0.00,VWS V14.01,2013-04-30 18:56:00,
2013-04-30 14:01:00,80.9,60.0,29.77,ENE,59,3.0,5.0,49,0.00,,---,0.00,VWS V14.01,2013-04-30 19:01:00,
2013-04-30 14:06:00,81.6,60.6,29.77,NNE,25,2.0,8.0,49,0.00,,---,0.00,VWS V14.01,2013-04-30 19:06:00,
2013-04-30 14:11:00,81.6,61.2,29.77,SSE,167,1.0,2.0,50,0.00,,---,0.00,VWS V14.01,2013-04-30 19:11:00,
2013-04-30 14:16:00,81.2,60.2,29.77,East,91,2.0,10.0,49,0.00,,---,0.00,VWS V14.01,2013-04-30 19:16:00,
2013-04-30 14:21:00,81.8,62.5,29.76,SSE,167,2.0,3.0,52,0.00,,---,0.00,VWS V14.01,2013-04-30 19:21:00,
2013-04-30 14:26:00,82.8,62.3,29.76,East,92,1.0,5.0,50,0.00,,---,0.00,VWS V14.01,2013-04-30 19:26:00,
2013-04-30 14:31:00,83.0,61.3,29.76,SE,139,1.0,3.0,48,0.00,,---,0.00,VWS V14.01,2013-04-30 19:31:00,
2013-04-30 14:36:00,83.0,59.5,29.76,NE,39,2.0,11.0,45,0.00,,---,0.00,VWS V14.01,2013-04-30 19:36:00,
2013-04-30 14:41:00,82.2,61.2,29.76,SSW,195,7.0,7.0,49,0.00,,---,0.00,VWS V14.01,2013-04-30 19:41:00,
2013-04-30 14:46:00,82.8,59.9,29.76,ENE,73,3.0,7.0,46,0.00,,---,0.00,VWS V14.01,2013-04-30 19:46:00,
2013-04-30 14:51:00,81.4,60.4,29.76,ENE,68,1.0,3.0,49,0.00,,---,0.00,VWS V14.01,2013-04-30 19:51:00,
2013-04-30 14:56:00,81.6,63.4,29.75,ENE,71,2.0,6.0,54,0.00,,---,0.00,VWS V14.01,2013-04-30 19:56:00,
2013-04-30 15:01:00,82.6,60.3,29.76,South,171,6.0,6.0,47,0.00,,---,0.00,VWS V14.01,2013-04-30 20:01:00,
2013-04-30 15:06:00,83.4,61.1,29.75,NE,50,3.0,8.0,47,0.00,,---,0.00,VWS V14.01,2013-04-30 20:06:00,
2013-04-30 15:11:00,83.8,61.4,29.75,SSE,159,2.0,5.0,47,0.00,,---,0.00,VWS V14.01,2013-04-30 20:11:00,
2013-04-30 15:16:00,84.1,60.5,29.75,NE,53,5.0,7.0,45,0.00,,---,0.00,VWS V14.01,2013-04-30 20:16:00,
2013-04-30 15:21:00,83.4,59.8,29.75,ENE,63,2.0,10.0,45,0.00,,---,0.00,VWS V14.01,2013-04-30 20:21:00,
2013-04-30 15:26:00,83.4,60.5,29.75,SE,139,3.0,10.0,46,0.00,,---,0.00,VWS V14.01,2013-04-30 20:26:00,
2013-04-30 15:31:00,83.6,60.7,29.75,ENE,60,2.0,2.0,46,0.00,,---,0.00,VWS V14.01,2013-04-30 20:31:00,
2013-04-30 15:36:00,83.4,58.6,29.75,ESE,119,2.0,8.0,43,0.00,,---,0.00,VWS V14.01,2013-04-30 20:36:00,
2013-04-30 15:41:00,83.2,59.0,29.75,SE,135,2.0,2.0,44,0.00,,---,0.00,VWS V14.01,2013-04-30 20:41:00,
2013-04-30 15:46:00,83.4,61.1,29.75,SSE,167,2.0,6.0,47,0.00,,---,0.00,VWS V14.01,2013-04-30 20:46:00,
2013-04-30 15:51:00,83.2,59.7,29.74,NNE,12,2.0,3.0,45,0.00,,---,0.00,VWS V14.01,2013-04-30 20:51:00,
2013-04-30 15:56:00,83.2,59.7,29.74,East,90,1.0,6.0,45,0.00,,---,0.00,VWS V14.01,2013-04-30 20:56:00,
2013-04-30 16:01:00,83.2,60.3,29.74,SE,126,2.0,2.0,46,0.00,,---,0.00,VWS V14.01,2013-04-30 21:01:00,
2013-04-30 16:06:00,83.8,59.6,29.74,ESE,114,1.0,2.0,44,0.00,,---,0.00,VWS V14.01,2013-04-30 21:06:00,
2013-04-30 16:11:00,83.8,59.6,29.74,NE,49,6.0,7.0,44,0.00,,---,0.00,VWS V14.01,2013-04-30 21:11:00,
2013-04-30 16:16:00,83.2,59.0,29.73,ENE,70,2.0,8.0,44,0.00,,---,0.00,VWS V14.01,2013-04-30 21:16:00,
2013-04-30 16:21:00,82.2,57.5,29.74,ENE,60,1.0,5.0,43,0.00,,---,0.00,VWS V14.01,2013-04-30 21:21:00,
2013-04-30 16:26:00,82.6,59.1,29.73,NNE,29,5.0,8.0,45,0.00,,---,0.00,VWS V14.01,2013-04-30 21:26:00,
2013-04-30 16:31:00,83.0,59.5,29.73,North,9,2.0,3.0,45,0.00,,---,0.00,VWS V14.01,2013-04-30 21:31:00,
2013-04-30 16:36:00,83.8,58.9,29.73,East,99,3.0,8.0,43,0.00,,---,0.00,VWS V14.01,2013-04-30 21:36:00,
2013-04-30 16:41:00,83.8,58.3,29.73,SE,145,3.0,3.0,42,0.00,,---,0.00,VWS V14.01,2013-04-30 21:41:00,
2013-04-30 16:46:00,84.0,58.5,29.74,NE,47,1.0,7.0,42,0.00,,---,0.00,VWS V14.01,2013-04-30 21:46:00,
2013-04-30 16:51:00,84.1,59.9,29.73,ESE,116,2.0,3.0,44,0.00,,---,0.00,VWS V14.01,2013-04-30 21:51:00,
2013-04-30 16:56:00,84.5,57.5,29.73,ENE,63,6.0,8.0,40,0.00,,---,0.00,VWS V14.01,2013-04-30 21:56:00,
2013-04-30 17:01:00,83.8,57.6,29.74,NE,56,6.0,6.0,41,0.00,,---,0.00,VWS V14.01,2013-04-30 22:01:00,
2013-04-30 17:06:00,83.4,57.3,29.74,SE,139,2.0,6.0,41,0.00,,---,0.00,VWS V14.01,2013-04-30 22:06:00,
2013-04-30 17:11:00,83.0,57.6,29.74,ENE,68,0.0,7.0,42,0.00,,---,0.00,VWS V14.01,2013-04-30 22:11:00,
2013-04-30 17:16:00,82.4,58.3,29.74,East,99,5.0,8.0,44,0.00,,---,0.00,VWS V14.01,2013-04-30 22:16:00,
2013-04-30 17:21:00,82.4,58.3,29.74,ENE,73,3.0,7.0,44,0.00,,---,0.00,VWS V14.01,2013-04-30 22:21:00,
2013-04-30 17:26:00,83.0,58.9,29.74,East,83,2.0,7.0,44,0.00,,---,0.00,VWS V14.01,2013-04-30 22:26:00,
2013-04-30 17:31:00,83.2,59.0,29.74,ESE,122,1.0,2.0,44,0.00,,---,0.00,VWS V14.01,2013-04-30 22:31:00,
2013-04-30 17:36:00,83.6,61.3,29.73,ESE,109,5.0,11.0,47,0.00,,---,0.00,VWS V14.01,2013-04-30 22:36:00,
2013-04-30 17:41:00,83.4,58.6,29.73,East,95,3.0,3.0,43,0.00,,---,0.00,VWS V14.01,2013-04-30 22:41:00,
2013-04-30 17:46:00,83.4,58.6,29.73,NE,51,1.0,5.0,43,0.00,,---,0.00,VWS V14.01,2013-04-30 22:46:00,
2013-04-30 17:51:00,83.4,58.6,29.73,SSE,149,3.0,5.0,43,0.00,,---,0.00,VWS V14.01,2013-04-30 22:51:00,
2013-04-30 17:56:00,83.4,58.6,29.73,SE,139,0.0,5.0,43,0.00,,---,0.00,VWS V14.01,2013-04-30 22:56:00,
2013-04-30 18:01:00,83.2,59.7,29.73,SE,139,1.0,3.0,45,0.00,,---,0.00,VWS V14.01,2013-04-30 23:01:00,
2013-04-30 18:06:00,82.6,59.1,29.73,ENE,70,3.0,6.0,45,0.00,,---,0.00,VWS V14.01,2013-04-30 23:06:00,
2013-04-30 18:11:00,82.2,59.4,29.73,NE,54,1.0,5.0,46,0.00,,---,0.00,VWS V14.01,2013-04-30 23:11:00,
2013-04-30 18:16:00,82.0,59.8,29.73,ENE,60,2.0,5.0,47,0.00,,---,0.00,VWS V14.01,2013-04-30 23:16:00,
2013-04-30 18:21:00,81.6,59.4,29.74,ENE,71,1.0,6.0,47,0.00,,---,0.00,VWS V14.01,2013-04-30 23:21:00,
2013-04-30 18:26:00,81.4,59.8,29.74,NE,51,5.0,7.0,48,0.00,,---,0.00,VWS V14.01,2013-04-30 23:26:00,
2013-04-30 18:31:00,81.2,59.7,29.74,NNE,27,5.0,7.0,48,0.00,,---,0.00,VWS V14.01,2013-04-30 23:31:00,
2013-04-30 18:36:00,81.1,59.6,29.74,ENE,63,2.0,8.0,48,0.00,,---,0.00,VWS V14.01,2013-04-30 23:36:00,
2013-04-30 18:41:00,80.7,59.2,29.74,East,92,5.0,7.0,48,0.00,,---,0.00,VWS V14.01,2013-04-30 23:41:00,
2013-04-30 18:46:00,80.5,60.2,29.74,ENE,70,7.0,7.0,50,0.00,,---,0.00,VWS V14.01,2013-04-30 23:46:00,
2013-04-30 18:51:00,80.5,60.7,29.73,East,80,2.0,2.0,51,0.00,,---,0.00,VWS V14.01,2013-04-30 23:51:00,
2013-04-30 18:56:00,80.1,60.4,29.74,ESE,105,0.0,3.0,51,0.00,,---,0.00,VWS V14.01,2013-04-30 23:56:00,
2013-04-30 19:01:00,80.1,60.9,29.73,ESE,105,0.0,0.0,52,0.00,,---,0.00,VWS V14.01,2013-05-01 00:01:00,
2013-04-30 19:06:00,79.9,60.7,29.73,East,95,3.0,3.0,52,0.00,,---,0.00,VWS V14.01,2013-05-01 00:06:00,
2013-04-30 19:11:00,79.8,60.6,29.73,ENE,78,0.0,1.0,52,0.00,,---,0.00,VWS V14.01,2013-05-01 00:11:00,
2013-04-30 19:16:00,79.8,61.7,29.74,ENE,78,0.0,1.0,54,0.00,,---,0.00,VWS V14.01,2013-05-01 00:16:00,
2013-04-30 19:21:00,79.6,61.0,29.74,ENE,75,1.0,1.0,53,0.00,,---,0.00,VWS V14.01,2013-05-01 00:21:00,
2013-04-30 19:26:00,79.2,61.1,29.74,ENE,66,0.0,1.0,54,0.00,,---,0.00,VWS V14.01,2013-05-01 00:26:00,
2013-04-30 19:31:00,78.8,60.8,29.74,ENE,66,0.0,0.0,54,0.00,,---,0.00,VWS V14.01,2013-05-01 00:31:00,
2013-04-30 19:36:00,78.5,61.5,29.74,ENE,66,0.0,0.0,56,0.00,,---,0.00,VWS V14.01,2013-05-01 00:36:00,
2013-04-30 19:41:00,78.1,60.6,29.74,ENE,61,0.0,0.0,55,0.00,,---,0.00,VWS V14.01,2013-05-01 00:41:00,
2013-04-30 19:46:00,77.6,60.2,29.74,ENE,61,0.0,0.0,55,0.00,,---,0.00,VWS V14.01,2013-05-01 00:46:00,
2013-04-30 19:51:00,77.2,60.3,29.74,ENE,61,0.0,0.0,56,0.00,,---,0.00,VWS V14.01,2013-05-01 00:51:00,
2013-04-30 19:56:00,76.7,60.3,29.75,ENE,61,0.0,0.0,57,0.00,,---,0.00,VWS V14.01,2013-05-01 00:56:00,
2013-04-30 20:01:00,76.3,60.5,29.75,ENE,64,0.0,0.0,58,0.00,,---,0.00,VWS V14.01,2013-05-01 01:01:00,
2013-04-30 20:06:00,76.0,60.7,29.75,ENE,63,0.0,0.0,59,0.00,,---,0.00,VWS V14.01,2013-05-01 01:06:00,
2013-04-30 20:11:00,75.6,60.8,29.75,ENE,63,0.0,0.0,60,0.00,,---,0.00,VWS V14.01,2013-05-01 01:11:00,
2013-04-30 20:16:00,75.1,60.3,29.75,ENE,63,0.0,0.0,60,0.00,,---,0.00,VWS V14.01,2013-05-01 01:16:00,
2013-04-30 20:21:00,74.7,60.4,29.75,ENE,63,0.0,0.0,61,0.00,,---,0.00,VWS V14.01,2013-05-01 01:21:00,
2013-04-30 20:26:00,74.2,59.9,29.75,ENE,63,0.0,0.0,61,0.00,,---,0.00,VWS V14.01,2013-05-01 01:26:00,
2013-04-30 20:31:00,73.9,59.6,29.75,ENE,63,0.0,0.0,61,0.00,,---,0.00,VWS V14.01,2013-05-01 01:31:00,
2013-04-30 20:36:00,73.7,59.4,29.75,ENE,63,0.0,0.0,61,0.00,,---,0.00,VWS V14.01,2013-05-01 01:36:00,
2013-04-30 20:41:00,73.0,61.0,29.75,ENE,63,0.0,0.0,66,0.00,,---,0.00,VWS V14.01,2013-05-01 01:41:00,
2013-04-30 20:46:00,72.5,60.5,29.75,ENE,63,0.0,0.0,66,0.00,,---,0.00,VWS V14.01,2013-05-01 01:46:00,
2013-04-30 20:51:00,72.0,60.9,29.76,ENE,63,0.0,0.0,68,0.00,,---,0.00,VWS V14.01,2013-05-01 01:51:00,
2013-04-30 20:56:00,71.3,60.6,29.76,ENE,63,0.0,0.0,69,0.00,,---,0.00,VWS V14.01,2013-05-01 01:56:00,
2013-04-30 21:01:00,70.9,60.2,29.76,ENE,63,0.0,0.0,69,0.00,,---,0.00,VWS V14.01,2013-05-01 02:01:00,
2013-04-30 21:06:00,70.8,60.1,29.76,ENE,63,0.0,0.0,69,0.00,,---,0.00,VWS V14.01,2013-05-01 02:06:00,
2013-04-30 21:11:00,70.4,60.2,29.76,ENE,63,0.0,0.0,70,0.00,,---,0.00,VWS V14.01,2013-05-01 02:11:00,
2013-04-30 21:16:00,70.1,59.9,29.76,ENE,63,0.0,0.0,70,0.00,,---,0.00,VWS V14.01,2013-05-01 02:16:00,
2013-04-30 21:21:00,69.9,60.1,29.76,ENE,63,0.0,0.0,71,0.00,,---,0.00,VWS V14.01,2013-05-01 02:21:00,
2013-04-30 21:26:00,69.6,60.2,29.76,ENE,63,0.0,0.0,72,0.00,,---,0.00,VWS V14.01,2013-05-01 02:26:00,
2013-04-30 21:31:00,69.3,59.9,29.77,ENE,63,0.0,0.0,72,0.00,,---,0.00,VWS V14.01,2013-05-01 02:31:00,
2013-04-30 21:36:00,68.9,59.5,29.77,ENE,63,0.0,0.0,72,0.00,,---,0.00,VWS V14.01,2013-05-01 02:36:00,
2013-04-30 21:41:00,68.9,60.3,29.77,ENE,63,0.0,0.0,74,0.00,,---,0.00,VWS V14.01,2013-05-01 02:41:00,
2013-04-30 21:46:00,68.9,59.9,29.77,ENE,63,0.0,0.0,73,0.00,,---,0.00,VWS V14.01,2013-05-01 02:46:00,
2013-04-30 21:51:00,69.1,60.1,29.78,ENE,64,0.0,0.0,73,0.00,,---,0.00,VWS V14.01,2013-05-01 02:51:00,
2013-04-30 21:56:00,69.8,60.8,29.78,ENE,63,0.0,0.0,73,0.00,,---,0.00,VWS V14.01,2013-05-01 02:56:00,
2013-04-30 22:01:00,70.3,60.9,29.78,NW,324,0.0,0.0,72,0.00,,---,0.00,VWS V14.01,2013-05-01 03:01:00,
2013-04-30 22:06:00,70.6,61.1,29.78,NE,43,3.0,5.0,72,0.00,,---,0.00,VWS V14.01,2013-05-01 03:06:00,
2013-04-30 22:11:00,71.1,61.6,29.79,NE,40,2.0,2.0,72,0.00,,---,0.00,VWS V14.01,2013-05-01 03:11:00,
2013-04-30 22:16:00,71.3,61.4,29.79,South,186,0.0,2.0,71,0.00,,---,0.00,VWS V14.01,2013-05-01 03:16:00,
2013-04-30 22:21:00,71.3,61.4,29.79,SSE,147,0.0,0.0,71,0.00,,---,0.00,VWS V14.01,2013-05-01 03:21:00,
2013-04-30 22:26:00,71.1,61.6,29.79,SSE,147,0.0,2.0,72,0.00,,---,0.00,VWS V14.01,2013-05-01 03:26:00,
2013-04-30 22:31:00,71.1,61.6,29.79,ESE,116,2.0,3.0,72,0.00,,---,0.00,VWS V14.01,2013-05-01 03:31:00,
2013-04-30 22:36:00,71.1,62.0,29.79,ESE,116,0.0,3.0,73,0.00,,---,0.00,VWS V14.01,2013-05-01 03:36:00,
2013-04-30 22:41:00,70.9,61.8,29.79,ESE,116,0.0,0.0,73,0.00,,---,0.00,VWS V14.01,2013-05-01 03:41:00,
2013-04-30 22:46:00,70.8,62.1,29.79,ESE,116,0.0,0.0,74,0.00,,---,0.00,VWS V14.01,2013-05-01 03:46:00,
2013-04-30 22:51:00,70.6,61.9,29.79,ESE,116,0.0,0.0,74,0.00,,---,0.00,VWS V14.01,2013-05-01 03:51:00,
2013-04-30 22:56:00,70.4,62.1,29.79,ESE,116,0.0,0.0,75,0.00,,---,0.00,VWS V14.01,2013-05-01 03:56:00,
2013-04-30 23:01:00,70.4,62.1,29.79,ESE,116,0.0,0.0,75,0.00,,---,0.00,VWS V14.01,2013-05-01 04:01:00,
2013-04-30 23:06:00,70.3,62.4,29.79,ESE,121,0.0,0.0,76,0.00,,---,0.00,VWS V14.01,2013-05-01 04:06:00,
2013-04-30 23:11:00,70.1,62.2,29.79,ESE,121,0.0,0.0,76,0.00,,---,0.00,VWS V14.01,2013-05-01 04:11:00,
2013-04-30 23:16:00,69.8,62.3,29.79,ESE,121,0.0,0.0,77,0.00,,---,0.00,VWS V14.01,2013-05-01 04:16:00,
2013-04-30 23:21:00,69.8,62.3,29.79,ESE,121,0.0,0.0,77,0.00,,---,0.00,VWS V14.01,2013-05-01 04:21:00,
2013-04-30 23:26:00,69.6,62.4,29.79,ESE,121,0.0,0.0,78,0.00,,---,0.00,VWS V14.01,2013-05-01 04:26:00,
2013-04-30 23:31:00,69.3,62.2,29.79,ESE,121,0.0,0.0,78,0.00,,---,0.00,VWS V14.01,2013-05-01 04:31:00,
2013-04-30 23:36:00,69.1,62.3,29.79,ESE,121,0.0,0.0,79,0.00,,---,0.00,VWS V14.01,2013-05-01 04:36:00,
2013-04-30 23:41:00,68.9,62.1,29.79,ESE,121,0.0,0.0,79,0.00,,---,0.00,VWS V14.01,2013-05-01 04:41:00,
2013-04-30 23:46:00,68.8,62.4,29.79,ESE,121,0.0,0.0,80,0.00,,---,0.00,VWS V14.01,2013-05-01 04:46:00,
2013-04-30 23:51:00,68.6,62.2,29.79,ESE,121,0.0,0.0,80,0.00,,---,0.00,VWS V14.01,2013-05-01 04:51:00,
2013-04-30 23:56:00,68.4,62.0,29.79,ESE,121,0.0,0.0,80,0.00,,---,0.00,VWS V14.01,2013-05-01 04:56:00,